createdAt,value
2022-12-06T00:05:28.291Z,2.28
2022-12-06T00:11:52.315Z,2.55
2022-12-06T00:17:37.587Z,2.67
2022-12-06T00:20:20.784Z,1.73
2022-12-06T00:30:04.665Z,2.88
2022-12-06T00:32:44.244Z,1.40
2022-12-06T00:35:15.934Z,1.92
2022-12-06T00:40:32.611Z,1.95
2022-12-06T00:46:00.590Z,1.52
2022-12-06T00:52:33.071Z,2.15
2022-12-06T00:55:12.467Z,1.63
2022-12-06T00:57:46.057Z,1.65
2022-12-06T01:01:02.266Z,1.42
2022-12-06T01:04:00.436Z,2.33
2022-12-06T01:15:56.055Z,1.83
2022-12-06T01:18:34.078Z,1.35
2022-12-06T01:21:39.957Z,2.38
2022-12-06T01:24:20.909Z,1.20
2022-12-06T01:29:47.138Z,1.17
2022-12-06T01:32:21.605Z,2.35
2022-12-06T01:35:14.172Z,1.33
2022-12-06T01:41:15.451Z,3.05
2022-12-06T01:43:52.158Z,1.17
2022-12-06T01:46:42.815Z,1.67
2022-12-06T01:59:13.796Z,2.67
2022-12-06T02:06:16.424Z,2.13
2022-12-06T02:14:17.054Z,1.90
2022-12-06T02:16:11.413Z,2.95
2022-12-06T02:19:30.036Z,0.63
2022-12-06T02:23:02.996Z,2.35
2022-12-06T02:26:37.899Z,0.98
2022-12-06T02:33:04.508Z,1.10
2022-12-06T02:35:48.459Z,0.80
2022-12-06T02:38:32.437Z,1.05
2022-12-06T02:41:04.831Z,0.70
2022-12-06T02:43:38.097Z,1.17
2022-12-06T02:46:07.266Z,5.00
2022-12-06T02:48:35.474Z,0.75
2022-12-06T02:51:08.645Z,1.10
2022-12-06T02:53:38.957Z,1.52
2022-12-06T02:56:05.854Z,0.52
2022-12-06T02:58:36.874Z,1.52
2022-12-06T03:01:11.059Z,1.15
2022-12-06T03:03:44.277Z,2.03
2022-12-06T03:06:25.159Z,0.68
2022-12-06T03:09:03.938Z,1.42
2022-12-06T03:12:07.909Z,0.45
2022-12-06T03:14:44.064Z,0.90
2022-12-06T03:17:28.949Z,1.85
2022-12-06T03:20:05.093Z,1.25
2022-12-06T03:22:40.132Z,0.50
2022-12-06T03:25:09.128Z,2.00
2022-12-06T03:27:37.081Z,0.60
2022-12-06T03:30:08.420Z,1.55
2022-12-06T03:32:40.782Z,0.77
2022-12-06T03:35:12.236Z,0.88
2022-12-06T03:37:43.803Z,0.90
2022-12-06T03:40:13.583Z,0.70
2022-12-06T03:42:40.165Z,0.85
2022-12-06T03:45:09.597Z,0.77
2022-12-06T03:47:53.606Z,0.77
2022-12-06T03:50:38.065Z,1.02
2022-12-06T03:53:04.669Z,1.35
2022-12-06T03:55:31.313Z,1.00
2022-12-06T03:57:58.146Z,1.23
2022-12-06T04:00:24.767Z,1.08
2022-12-06T04:02:51.772Z,1.08
2022-12-06T04:05:18.693Z,1.05
2022-12-06T04:07:45.362Z,2.13
2022-12-06T04:10:12.036Z,0.82
2022-12-06T04:12:57.338Z,0.93
2022-12-06T04:15:23.835Z,0.95
2022-12-06T04:18:09.561Z,1.02
2022-12-06T04:21:24.656Z,0.43
2022-12-06T04:23:52.601Z,3.10
2022-12-06T04:26:22.796Z,1.67
2022-12-06T04:29:09.398Z,0.40
2022-12-06T04:31:55.756Z,0.47
2022-12-06T04:34:41.170Z,1.30
2022-12-06T04:37:26.826Z,0.43
2022-12-06T04:39:53.717Z,0.30
2022-12-06T04:42:38.601Z,1.50
2022-12-06T04:45:06.908Z,0.70
2022-12-06T04:47:33.608Z,0.40
2022-12-06T04:50:00.488Z,0.70
2022-12-06T04:52:30.204Z,1.73
2022-12-06T04:55:01.197Z,0.80
2022-12-06T04:57:27.739Z,1.38
2022-12-06T04:59:54.340Z,1.08
2022-12-06T05:02:21.159Z,0.60
2022-12-06T05:04:48.361Z,1.33
2022-12-06T05:07:15.405Z,0.47
2022-12-06T05:09:41.900Z,1.27
2022-12-06T05:12:08.562Z,1.05
2022-12-06T05:14:35.123Z,0.47
2022-12-06T05:17:01.815Z,0.85
2022-12-06T05:19:32.144Z,2.45
2022-12-06T05:21:58.695Z,0.80
2022-12-06T05:24:25.797Z,0.73
2022-12-06T05:26:52.806Z,0.38
2022-12-06T05:29:20.452Z,0.90
2022-12-06T05:31:47.529Z,0.80
2022-12-06T05:34:14.733Z,1.27
2022-12-06T05:36:41.373Z,0.57
2022-12-06T05:39:08.401Z,0.50
2022-12-06T05:41:35.034Z,2.65
2022-12-06T05:44:01.597Z,1.85
2022-12-06T05:46:28.713Z,0.93
2022-12-06T05:48:55.323Z,0.65
2022-12-06T05:51:22.419Z,0.43
2022-12-06T05:53:49.414Z,0.88
2022-12-06T05:56:15.997Z,1.67
2022-12-06T05:58:43.026Z,1.65
2022-12-06T06:01:10.131Z,0.50
2022-12-06T06:03:39.935Z,0.70
2022-12-06T06:06:10.681Z,1.90
2022-12-06T06:08:37.710Z,0.90
2022-12-06T06:11:04.843Z,0.90
2022-12-06T06:13:31.381Z,0.32
2022-12-06T06:15:57.976Z,0.40
2022-12-06T06:18:24.994Z,0.57
2022-12-06T06:20:59.016Z,0.40
2022-12-06T06:23:26.737Z,0.50
2022-12-06T06:25:54.103Z,0.40
2022-12-06T06:28:20.850Z,0.45
2022-12-06T06:30:47.469Z,0.77
2022-12-06T06:33:15.022Z,0.75
2022-12-06T06:35:41.875Z,0.40
2022-12-06T06:38:09.464Z,0.50
2022-12-06T06:40:36.367Z,0.55
2022-12-06T06:43:18.275Z,23.45
2022-12-06T06:45:51.138Z,34.75
2022-12-06T06:48:18.184Z,22.08
2022-12-06T06:50:44.717Z,17.92
2022-12-06T06:53:11.675Z,18.30
2022-12-06T06:55:38.190Z,15.15
2022-12-06T06:58:05.337Z,18.73
2022-12-06T07:00:32.847Z,15.48
2022-12-06T07:02:59.432Z,15.07
2022-12-06T07:05:27.128Z,12.38
2022-12-06T07:07:54.498Z,11.95
2022-12-06T07:10:21.320Z,9.20
2022-12-06T07:12:48.277Z,11.80
2022-12-06T07:15:15.114Z,7.35
2022-12-06T07:17:41.892Z,9.30
2022-12-06T07:20:08.995Z,10.48
2022-12-06T07:22:36.705Z,7.53
2022-12-06T07:25:03.676Z,4.07
2022-12-06T07:27:33.761Z,10.80
2022-12-06T07:30:01.232Z,11.93
2022-12-06T07:32:28.132Z,8.02
2022-12-06T07:34:54.651Z,7.28
2022-12-06T07:37:21.203Z,11.23
2022-12-06T07:39:47.736Z,6.72
2022-12-06T07:42:32.804Z,7.28
2022-12-06T07:45:02.823Z,6.63
2022-12-06T07:47:37.734Z,5.45
2022-12-06T07:50:06.989Z,2.53
2022-12-06T07:52:35.254Z,7.65
2022-12-06T07:55:02.354Z,2.20
2022-12-06T07:57:29.130Z,4.78
2022-12-06T07:59:56.134Z,3.35
2022-12-06T08:02:25.835Z,3.70
2022-12-06T08:04:53.304Z,5.65
2022-12-06T08:07:20.613Z,2.80
2022-12-06T08:09:47.856Z,2.30
2022-12-06T08:12:15.002Z,2.72
2022-12-06T08:14:41.545Z,2.90
2022-12-06T08:17:08.075Z,2.35
2022-12-06T08:19:34.645Z,1.83
2022-12-06T08:22:01.237Z,2.28
2022-12-06T08:24:28.500Z,1.48
2022-12-06T08:26:55.520Z,4.57
2022-12-06T08:29:22.884Z,3.10
2022-12-06T08:31:49.851Z,1.98
2022-12-06T08:34:16.691Z,3.15
2022-12-06T08:36:43.417Z,7.40
2022-12-06T08:39:12.124Z,6.25
2022-12-06T08:41:58.360Z,9.98
2022-12-06T08:46:54.228Z,13.93
2022-12-06T08:49:22.270Z,14.10
2022-12-06T08:51:48.864Z,11.10
2022-12-06T08:54:17.741Z,10.32
2022-12-06T08:56:44.778Z,13.93
2022-12-06T08:59:11.558Z,13.35
2022-12-06T09:01:38.952Z,8.90
2022-12-06T09:04:10.827Z,14.48
2022-12-06T09:06:42.077Z,9.05
2022-12-06T09:09:10.168Z,11.95
2022-12-06T09:11:38.086Z,9.73
2022-12-06T09:14:05.235Z,12.80
2022-12-06T09:16:32.402Z,13.07
2022-12-06T09:18:59.372Z,9.52
2022-12-06T09:21:30.341Z,8.18
2022-12-06T09:23:58.127Z,10.25
2022-12-06T09:26:25.981Z,9.10
2022-12-06T09:28:55.144Z,13.95
2022-12-06T09:31:22.594Z,14.35
2022-12-06T09:34:15.275Z,10.90
2022-12-06T09:37:05.565Z,9.10
2022-12-06T09:39:36.731Z,9.93
2022-12-06T09:42:34.588Z,8.30
2022-12-06T09:45:16.039Z,5.00
2022-12-06T09:48:29.905Z,8.45
2022-12-06T09:51:14.393Z,5.80
2022-12-06T09:53:49.232Z,6.60
2022-12-06T09:56:21.576Z,7.97
2022-12-06T09:59:02.898Z,10.45
2022-12-06T10:01:32.074Z,7.95
2022-12-06T10:04:39.369Z,6.05
2022-12-06T10:10:10.843Z,5.57
2022-12-06T10:12:57.686Z,6.47
2022-12-06T10:15:38.166Z,6.65
2022-12-06T10:18:09.663Z,5.10
2022-12-06T10:21:10.475Z,5.00
2022-12-06T10:23:46.122Z,4.88
2022-12-06T10:26:22.977Z,3.17
2022-12-06T10:29:16.218Z,7.22
2022-12-06T10:31:59.685Z,4.63
2022-12-06T10:35:01.216Z,5.88
2022-12-06T10:37:45.540Z,6.78
2022-12-06T10:40:21.105Z,8.88
2022-12-06T10:42:59.083Z,3.88
2022-12-06T10:45:47.491Z,2.38
2022-12-06T10:48:26.615Z,3.30
2022-12-06T10:51:01.997Z,6.13
2022-12-06T10:53:36.634Z,2.53
2022-12-06T10:56:13.605Z,3.75
2022-12-06T10:59:02.827Z,4.30
2022-12-06T11:01:36.792Z,3.65
2022-12-06T11:04:19.959Z,4.63
2022-12-06T11:06:56.585Z,3.85
2022-12-06T11:09:31.485Z,4.25
2022-12-06T11:11:58.367Z,2.13
2022-12-06T11:14:42.052Z,2.22
2022-12-06T11:17:23.393Z,4.22
2022-12-06T11:19:53.572Z,4.13
2022-12-06T11:22:37.782Z,2.50
2022-12-06T11:25:25.821Z,1.48
2022-12-06T11:28:11.407Z,3.95
2022-12-06T11:30:38.110Z,1.95
2022-12-06T11:33:05.768Z,4.00
2022-12-06T11:35:32.560Z,4.65
2022-12-06T11:38:03.505Z,3.22
2022-12-06T11:40:37.476Z,3.70
2022-12-06T11:43:09.186Z,1.40
2022-12-06T11:45:40.077Z,2.55
2022-12-06T11:48:22.864Z,1.98
2022-12-06T11:50:51.694Z,1.77
2022-12-06T11:53:37.033Z,1.90
2022-12-06T11:56:10.602Z,1.88
2022-12-06T11:58:59.062Z,2.75
2022-12-06T12:01:41.423Z,1.00
2022-12-06T12:04:42.698Z,1.98
2022-12-06T12:07:09.175Z,1.85
2022-12-06T12:10:04.429Z,1.52
2022-12-06T12:13:04.458Z,2.22
2022-12-06T12:15:32.828Z,1.02
2022-12-06T12:18:01.039Z,1.15
2022-12-06T12:20:33.623Z,1.05
2022-12-06T12:23:16.835Z,2.80
2022-12-06T12:25:43.858Z,1.42
2022-12-06T12:28:32.090Z,1.10
2022-12-06T12:31:23.113Z,2.13
2022-12-06T12:34:20.555Z,2.70
2022-12-06T12:36:52.860Z,1.10
2022-12-06T12:39:37.314Z,4.00
2022-12-06T12:42:05.423Z,1.90
2022-12-06T12:44:38.072Z,1.92
2022-12-06T12:47:19.673Z,2.40
2022-12-06T12:50:05.163Z,1.30
2022-12-06T12:52:38.066Z,1.37
2022-12-06T12:55:13.487Z,1.63
2022-12-06T12:57:41.559Z,0.68
2022-12-06T13:00:17.240Z,1.60
2022-12-06T13:02:46.489Z,2.80
2022-12-06T13:05:33.248Z,1.70
2022-12-06T13:08:11.372Z,1.55
2022-12-06T13:10:39.764Z,0.93
2022-12-06T13:13:39.811Z,1.83
2022-12-06T13:16:12.963Z,1.40
2022-12-06T13:18:44.876Z,0.77
2022-12-06T13:21:23.182Z,0.70
2022-12-06T13:23:54.237Z,1.27
2022-12-06T13:26:28.334Z,1.00
2022-12-06T13:28:59.805Z,1.23
2022-12-06T13:31:33.910Z,0.95
2022-12-06T13:34:05.805Z,0.85
2022-12-06T13:36:34.640Z,1.17
2022-12-06T13:39:33.412Z,1.17
2022-12-06T13:42:20.727Z,7.47
2022-12-06T13:44:50.012Z,3.20
2022-12-06T13:47:29.095Z,1.27
2022-12-06T13:50:01.254Z,1.90
2022-12-06T13:52:43.274Z,0.80
2022-12-06T13:55:35.957Z,1.20
2022-12-06T13:58:02.441Z,0.82
2022-12-06T14:00:29.210Z,0.60
2022-12-06T14:03:03.572Z,1.60
2022-12-06T14:06:14.902Z,0.60
2022-12-06T14:08:45.134Z,1.05
2022-12-06T14:11:29.784Z,1.08
2022-12-06T14:13:58.294Z,1.88
2022-12-06T14:16:41.156Z,1.02
2022-12-06T14:19:18.017Z,1.13
2022-12-06T14:22:00.287Z,0.75
2022-12-06T14:24:27.853Z,2.38
2022-12-06T14:26:54.641Z,0.77
2022-12-06T14:29:23.719Z,1.08
2022-12-06T14:31:51.532Z,0.70
2022-12-06T14:34:29.072Z,0.40
2022-12-06T14:36:56.169Z,1.45
2022-12-06T14:39:29.071Z,1.38
2022-12-06T14:42:21.089Z,1.38
2022-12-06T14:44:58.850Z,1.23
2022-12-06T14:47:29.437Z,0.50
2022-12-06T14:50:17.479Z,0.55
2022-12-06T14:53:03.591Z,0.47
2022-12-06T14:55:37.388Z,1.00
2022-12-06T14:58:15.621Z,1.02
2022-12-06T15:01:22.694Z,2.20
2022-12-06T15:04:07.691Z,1.45
2022-12-06T15:06:37.167Z,0.40
2022-12-06T15:09:12.281Z,1.08
2022-12-06T15:11:59.371Z,0.75
2022-12-06T15:14:49.489Z,2.80
2022-12-06T15:17:22.828Z,1.50
2022-12-06T15:19:52.106Z,1.13
2022-12-06T15:22:25.276Z,0.25
2022-12-06T15:24:55.386Z,1.50
2022-12-06T15:27:23.912Z,3.13
2022-12-06T15:29:50.646Z,2.20
2022-12-06T15:32:19.456Z,1.38
2022-12-06T15:34:46.501Z,1.77
2022-12-06T15:37:38.644Z,3.92
2022-12-06T15:40:03.290Z,1.20
2022-12-06T15:42:29.944Z,1.67
2022-12-06T15:44:56.507Z,1.75
2022-12-06T15:47:23.012Z,1.80
2022-12-06T15:49:51.878Z,1.70
2022-12-06T15:52:24.421Z,2.03
2022-12-06T15:54:51.105Z,1.35
2022-12-06T15:57:18.205Z,1.75
2022-12-06T15:59:44.852Z,1.48
2022-12-06T16:02:16.574Z,1.48
2022-12-06T16:04:43.659Z,1.50
2022-12-06T16:07:11.194Z,1.38
2022-12-06T16:09:37.884Z,1.88
2022-12-06T16:12:04.772Z,0.82
2022-12-06T16:14:31.276Z,2.53
2022-12-06T16:16:57.765Z,1.92
2022-12-06T16:19:24.290Z,1.77
2022-12-06T16:21:55.511Z,1.02
2022-12-06T16:24:22.477Z,1.98
2022-12-06T16:26:49.035Z,1.52
2022-12-06T16:29:17.436Z,0.90
2022-12-06T16:31:44.710Z,1.48
2022-12-06T16:34:11.282Z,1.33
2022-12-06T16:37:04.018Z,2.42
2022-12-06T16:39:33.694Z,3.22
2022-12-06T16:42:01.512Z,2.47
2022-12-06T16:44:28.093Z,2.17
2022-12-06T16:46:54.922Z,2.15
2022-12-06T16:52:10.647Z,1.27
2022-12-06T16:54:41.186Z,6.38
2022-12-06T16:57:09.934Z,1.58
2022-12-06T16:59:36.794Z,5.10
2022-12-06T17:02:06.058Z,1.92
2022-12-06T17:04:36.875Z,0.77
2022-12-06T17:07:03.381Z,0.85
2022-12-06T17:09:29.936Z,2.08
2022-12-06T17:12:12.741Z,5.47
2022-12-06T17:14:40.222Z,3.85
2022-12-06T17:17:06.918Z,1.33
2022-12-06T17:19:34.067Z,1.15
2022-12-06T17:22:02.354Z,2.55
2022-12-06T17:24:29.266Z,1.48
2022-12-06T17:26:56.049Z,1.17
2022-12-06T17:29:23.613Z,2.53
2022-12-06T17:31:51.777Z,0.77
2022-12-06T17:34:19.959Z,1.52
2022-12-06T17:36:48.213Z,1.65
2022-12-06T17:39:17.489Z,5.70
2022-12-06T17:42:03.424Z,1.33
2022-12-06T17:44:30.411Z,1.00
2022-12-06T17:46:57.000Z,2.60
2022-12-06T17:49:25.289Z,1.65
2022-12-06T17:51:52.181Z,1.92
2022-12-06T17:54:20.069Z,3.70
2022-12-06T17:56:52.275Z,2.60
2022-12-06T17:59:24.461Z,3.55
2022-12-06T18:02:14.851Z,1.13
2022-12-06T18:04:38.639Z,1.75
2022-12-06T18:07:05.385Z,2.72
2022-12-06T18:09:31.888Z,1.55
2022-12-06T18:11:59.043Z,2.80
2022-12-06T18:14:25.588Z,1.48
2022-12-06T18:16:52.887Z,2.13
2022-12-06T18:19:21.377Z,3.80
2022-12-06T18:21:48.898Z,5.78
2022-12-06T18:24:21.980Z,2.97
2022-12-06T18:26:50.516Z,2.53
2022-12-06T18:29:20.054Z,1.35
2022-12-06T18:31:47.069Z,3.05
2022-12-06T18:34:14.185Z,3.20
2022-12-06T18:36:41.536Z,1.90
2022-12-06T18:39:14.423Z,2.33
2022-12-06T18:41:42.409Z,3.83
2022-12-06T18:44:10.233Z,4.38
2022-12-06T18:46:39.086Z,4.53
2022-12-06T18:49:06.155Z,1.15
2022-12-06T18:51:35.475Z,3.28
2022-12-06T18:54:04.486Z,2.88
2022-12-06T18:56:32.716Z,2.30
2022-12-06T18:59:07.225Z,2.28
2022-12-06T19:01:36.686Z,3.15
2022-12-06T19:04:05.286Z,1.63
2022-12-06T19:06:34.739Z,2.00
2022-12-06T19:09:06.958Z,2.22
2022-12-06T19:11:37.072Z,2.00
2022-12-06T19:14:03.765Z,2.85
2022-12-06T19:16:36.082Z,2.15
2022-12-06T19:19:05.155Z,2.15
2022-12-06T19:21:35.235Z,4.47
2022-12-06T19:24:03.078Z,2.40
2022-12-06T19:26:30.165Z,1.42
2022-12-06T19:28:57.279Z,2.38
2022-12-06T19:31:24.440Z,1.33
2022-12-06T19:33:52.972Z,2.60
2022-12-06T19:36:23.356Z,2.13
2022-12-06T19:38:59.093Z,1.65
2022-12-06T19:41:26.142Z,0.98
2022-12-06T19:44:11.601Z,2.40
2022-12-06T19:46:38.748Z,4.07
2022-12-06T19:49:06.580Z,1.85
2022-12-06T19:51:38.026Z,2.35
2022-12-06T19:54:06.205Z,2.03
2022-12-06T19:56:34.021Z,1.65
2022-12-06T19:59:06.082Z,1.23
2022-12-06T20:01:32.674Z,1.13
2022-12-06T20:03:59.296Z,3.13
2022-12-06T20:06:27.302Z,0.85
2022-12-06T20:08:56.386Z,1.38
2022-12-06T20:11:42.399Z,2.03
2022-12-06T20:14:11.828Z,2.92
2022-12-06T20:16:38.860Z,2.97
2022-12-06T20:19:07.054Z,0.90
2022-12-06T20:21:34.387Z,0.85
2022-12-06T20:24:01.968Z,0.90
2022-12-06T20:26:30.489Z,0.80
2022-12-06T20:28:57.028Z,0.70
2022-12-06T20:31:27.038Z,1.38
2022-12-06T20:33:58.983Z,1.40
2022-12-06T20:36:27.655Z,1.95
2022-12-06T20:38:55.374Z,1.80
2022-12-06T20:41:27.757Z,1.67
2022-12-06T20:43:54.309Z,4.07
2022-12-06T20:46:24.976Z,1.55
2022-12-06T20:48:52.757Z,1.02
2022-12-06T20:51:24.889Z,3.63
2022-12-06T20:53:54.631Z,1.42
2022-12-06T20:56:22.345Z,1.15
2022-12-06T20:58:52.525Z,1.20
2022-12-06T21:01:22.316Z,1.45
2022-12-06T21:03:50.881Z,1.35
2022-12-06T21:06:19.637Z,0.73
2022-12-06T21:08:50.342Z,1.05
2022-12-06T21:11:23.333Z,2.95
2022-12-06T21:13:53.438Z,6.38
2022-12-06T21:16:23.958Z,1.23
2022-12-06T21:19:03.246Z,2.00
2022-12-06T21:21:34.935Z,2.08
2022-12-06T21:24:07.896Z,0.90
2022-12-06T21:26:35.707Z,1.42
2022-12-06T21:29:02.837Z,0.70
2022-12-06T21:31:35.479Z,1.08
2022-12-06T21:34:02.883Z,1.45
2022-12-06T21:36:29.969Z,1.40
2022-12-06T21:38:58.414Z,0.95
2022-12-06T21:41:25.946Z,1.38
2022-12-06T21:43:52.964Z,1.65
2022-12-06T21:46:22.978Z,1.33
2022-12-06T21:48:55.326Z,1.95
2022-12-06T21:51:23.744Z,0.73
2022-12-06T21:53:50.807Z,1.23
2022-12-06T21:56:22.237Z,1.73
2022-12-06T21:58:49.770Z,4.53
2022-12-06T22:01:19.965Z,0.73
2022-12-06T22:03:51.370Z,0.82
2022-12-06T22:06:18.526Z,0.85
2022-12-06T22:08:47.050Z,0.90
2022-12-06T22:11:16.567Z,1.20
2022-12-06T22:13:43.387Z,0.55
2022-12-06T22:16:12.051Z,1.65
2022-12-06T22:18:44.923Z,1.17
2022-12-06T22:21:18.804Z,1.23
2022-12-06T22:23:46.534Z,1.00
2022-12-06T22:26:19.257Z,1.30
2022-12-06T22:28:47.300Z,0.60
2022-12-06T22:31:18.575Z,1.13
2022-12-06T22:33:46.342Z,0.73
2022-12-06T22:36:13.778Z,0.90
2022-12-06T22:38:40.737Z,2.05
2022-12-06T22:41:08.138Z,0.68
2022-12-06T22:43:35.761Z,0.68
2022-12-06T22:46:15.281Z,2.15
2022-12-06T22:48:43.276Z,0.77
2022-12-06T22:51:16.029Z,0.43
2022-12-06T22:53:46.104Z,0.85
2022-12-06T22:56:14.257Z,1.33
2022-12-06T22:58:41.882Z,0.50
2022-12-06T23:01:16.494Z,1.05
2022-12-06T23:03:45.373Z,1.00
2022-12-06T23:06:12.719Z,1.23
2022-12-06T23:08:39.969Z,0.82
2022-12-06T23:11:20.841Z,2.08
2022-12-06T23:13:48.312Z,0.88
2022-12-06T23:16:19.069Z,1.20
2022-12-06T23:18:46.854Z,1.25
2022-12-06T23:21:26.105Z,0.70
2022-12-06T23:23:55.449Z,0.98
2022-12-06T23:26:25.400Z,2.75
2022-12-06T23:28:52.393Z,1.00
2022-12-06T23:31:24.722Z,3.47
2022-12-06T23:33:57.625Z,1.73
2022-12-06T23:36:27.690Z,1.30
2022-12-06T23:38:54.268Z,1.67
2022-12-06T23:41:24.773Z,1.55
2022-12-06T23:43:52.394Z,0.63
2022-12-06T23:46:22.598Z,1.23
2022-12-06T23:48:50.273Z,1.48
2022-12-06T23:51:19.363Z,2.90
2022-12-06T23:53:50.733Z,1.33
2022-12-06T23:56:19.285Z,1.13
2022-12-06T23:58:46.749Z,0.95
